sensor_id;sensor_type;location;lat;lon;timestamp;P1;durP1;ratioP1;P2;durP2;ratioP2
29838;SDS011;18669;53.356;-1.464;2023-03-04T00:01:20;10.38;;;4.35;;
29838;SDS011;18669;53.356;-1.464;2023-03-04T00:03:46;10.30;;;4.00;;
29838;SDS011;18669;53.356;-1.464;2023-03-04T00:06:12;9.40;;;3.53;;
29838;SDS011;18669;53.356;-1.464;2023-03-04T00:08:38;13.75;;;4.00;;
29838;SDS011;18669;53.356;-1.464;2023-03-04T00:11:04;8.98;;;3.65;;
29838;SDS011;18669;53.356;-1.464;2023-03-04T00:13:31;13.65;;;3.97;;
29838;SDS011;18669;53.356;-1.464;2023-03-04T00:15:57;8.57;;;3.42;;
29838;SDS011;18669;53.356;-1.464;2023-03-04T00:18:23;11.98;;;3.30;;
29838;SDS011;18669;53.356;-1.464;2023-03-04T00:20:49;11.48;;;3.53;;
29838;SDS011;18669;53.356;-1.464;2023-03-04T00:23:15;7.05;;;3.10;;
29838;SDS011;18669;53.356;-1.464;2023-03-04T00:25:41;6.18;;;2.65;;
29838;SDS011;18669;53.356;-1.464;2023-03-04T00:28:07;9.85;;;3.03;;
29838;SDS011;18669;53.356;-1.464;2023-03-04T00:30:33;10.40;;;2.80;;
29838;SDS011;18669;53.356;-1.464;2023-03-04T00:32:59;8.30;;;2.88;;
29838;SDS011;18669;53.356;-1.464;2023-03-04T00:35:25;10.00;;;2.80;;
29838;SDS011;18669;53.356;-1.464;2023-03-04T00:40:17;7.85;;;3.10;;
29838;SDS011;18669;53.356;-1.464;2023-03-04T00:45:09;8.57;;;3.22;;
29838;SDS011;18669;53.356;-1.464;2023-03-04T00:50:01;8.18;;;2.78;;
29838;SDS011;18669;53.356;-1.464;2023-03-04T00:52:28;9.15;;;3.40;;
29838;SDS011;18669;53.356;-1.464;2023-03-04T00:54:54;9.98;;;4.53;;
29838;SDS011;18669;53.356;-1.464;2023-03-04T00:57:20;9.55;;;4.60;;
29838;SDS011;18669;53.356;-1.464;2023-03-04T00:59:46;9.13;;;4.68;;
29838;SDS011;18669;53.356;-1.464;2023-03-04T01:02:12;12.20;;;5.00;;
29838;SDS011;18669;53.356;-1.464;2023-03-04T01:07:04;8.88;;;3.83;;
29838;SDS011;18669;53.356;-1.464;2023-03-04T01:09:30;14.85;;;4.35;;
29838;SDS011;18669;53.356;-1.464;2023-03-04T01:11:56;11.70;;;4.90;;
29838;SDS011;18669;53.356;-1.464;2023-03-04T01:14:22;12.32;;;4.80;;
29838;SDS011;18669;53.356;-1.464;2023-03-04T01:16:48;7.93;;;4.80;;
29838;SDS011;18669;53.356;-1.464;2023-03-04T01:19:15;9.77;;;4.80;;
29838;SDS011;18669;53.356;-1.464;2023-03-04T01:24:07;8.80;;;4.90;;
29838;SDS011;18669;53.356;-1.464;2023-03-04T01:26:33;13.13;;;4.82;;
29838;SDS011;18669;53.356;-1.464;2023-03-04T01:31:25;10.95;;;4.15;;
29838;SDS011;18669;53.356;-1.464;2023-03-04T01:33:51;8.88;;;4.43;;
29838;SDS011;18669;53.356;-1.464;2023-03-04T01:36:17;8.43;;;4.45;;
29838;SDS011;18669;53.356;-1.464;2023-03-04T01:38:43;20.92;;;4.65;;
29838;SDS011;18669;53.356;-1.464;2023-03-04T01:41:09;7.13;;;3.42;;
29838;SDS011;18669;53.356;-1.464;2023-03-04T01:43:37;7.32;;;3.60;;
29838;SDS011;18669;53.356;-1.464;2023-03-04T01:46:04;9.50;;;3.90;;
29838;SDS011;18669;53.356;-1.464;2023-03-04T01:48:31;16.50;;;3.90;;
29838;SDS011;18669;53.356;-1.464;2023-03-04T01:51:02;6.80;;;3.08;;
29838;SDS011;18669;53.356;-1.464;2023-03-04T01:53:29;9.10;;;3.67;;
29838;SDS011;18669;53.356;-1.464;2023-03-04T01:55:59;8.65;;;3.45;;
29838;SDS011;18669;53.356;-1.464;2023-03-04T01:58:30;10.43;;;3.90;;
29838;SDS011;18669;53.356;-1.464;2023-03-04T02:00:57;7.10;;;3.70;;
29838;SDS011;18669;53.356;-1.464;2023-03-04T02:03:23;13.88;;;4.00;;
29838;SDS011;18669;53.356;-1.464;2023-03-04T02:05:50;8.02;;;3.40;;
29838;SDS011;18669;53.356;-1.464;2023-03-04T02:08:19;11.45;;;3.85;;
29838;SDS011;18669;53.356;-1.464;2023-03-04T02:10:46;9.13;;;3.90;;
29838;SDS011;18669;53.356;-1.464;2023-03-04T02:13:13;8.95;;;4.15;;
29838;SDS011;18669;53.356;-1.464;2023-03-04T02:15:41;10.30;;;4.82;;
29838;SDS011;18669;53.356;-1.464;2023-03-04T02:18:13;10.85;;;3.92;;
29838;SDS011;18669;53.356;-1.464;2023-03-04T02:20:53;7.22;;;3.78;;
29838;SDS011;18669;53.356;-1.464;2023-03-04T02:26:16;15.43;;;5.93;;
29838;SDS011;18669;53.356;-1.464;2023-03-04T02:28:45;12.05;;;5.55;;
29838;SDS011;18669;53.356;-1.464;2023-03-04T02:33:48;8.80;;;4.25;;
29838;SDS011;18669;53.356;-1.464;2023-03-04T02:36:15;7.72;;;4.43;;
29838;SDS011;18669;53.356;-1.464;2023-03-04T02:38:41;10.85;;;4.80;;
29838;SDS011;18669;53.356;-1.464;2023-03-04T02:41:10;13.63;;;5.18;;
29838;SDS011;18669;53.356;-1.464;2023-03-04T02:43:39;11.38;;;4.90;;
29838;SDS011;18669;53.356;-1.464;2023-03-04T02:48:31;13.15;;;4.70;;
29838;SDS011;18669;53.356;-1.464;2023-03-04T02:50:57;10.02;;;4.68;;
29838;SDS011;18669;53.356;-1.464;2023-03-04T02:53:23;10.98;;;4.55;;
29838;SDS011;18669;53.356;-1.464;2023-03-04T02:55:50;10.85;;;4.15;;
29838;SDS011;18669;53.356;-1.464;2023-03-04T03:00:42;8.85;;;4.20;;
29838;SDS011;18669;53.356;-1.464;2023-03-04T03:03:08;8.75;;;4.15;;
29838;SDS011;18669;53.356;-1.464;2023-03-04T03:05:34;7.90;;;4.15;;
29838;SDS011;18669;53.356;-1.464;2023-03-04T03:08:01;12.45;;;4.68;;
29838;SDS011;18669;53.356;-1.464;2023-03-04T03:10:27;13.10;;;4.47;;
29838;SDS011;18669;53.356;-1.464;2023-03-04T03:12:53;9.30;;;4.75;;
29838;SDS011;18669;53.356;-1.464;2023-03-04T03:15:19;8.82;;;4.32;;
29838;SDS011;18669;53.356;-1.464;2023-03-04T03:20:12;6.55;;;3.97;;
29838;SDS011;18669;53.356;-1.464;2023-03-04T03:22:39;10.75;;;4.25;;
29838;SDS011;18669;53.356;-1.464;2023-03-04T03:25:05;8.45;;;3.97;;
29838;SDS011;18669;53.356;-1.464;2023-03-04T03:27:32;9.65;;;4.07;;
29838;SDS011;18669;53.356;-1.464;2023-03-04T03:29:58;12.35;;;3.30;;
29838;SDS011;18669;53.356;-1.464;2023-03-04T03:32:24;7.90;;;3.67;;
29838;SDS011;18669;53.356;-1.464;2023-03-04T03:34:50;14.65;;;3.80;;
29838;SDS011;18669;53.356;-1.464;2023-03-04T03:37:16;7.28;;;3.13;;
29838;SDS011;18669;53.356;-1.464;2023-03-04T03:39:42;11.80;;;3.90;;
29838;SDS011;18669;53.356;-1.464;2023-03-04T03:42:09;6.45;;;2.90;;
29838;SDS011;18669;53.356;-1.464;2023-03-04T03:44:35;9.65;;;3.05;;
29838;SDS011;18669;53.356;-1.464;2023-03-04T03:47:01;8.70;;;3.08;;
29838;SDS011;18669;53.356;-1.464;2023-03-04T03:49:27;11.60;;;2.78;;
29838;SDS011;18669;53.356;-1.464;2023-03-04T03:51:53;5.50;;;3.05;;
29838;SDS011;18669;53.356;-1.464;2023-03-04T03:54:19;9.45;;;3.22;;
29838;SDS011;18669;53.356;-1.464;2023-03-04T03:56:45;7.07;;;3.00;;
29838;SDS011;18669;53.356;-1.464;2023-03-04T03:59:11;9.75;;;3.45;;
29838;SDS011;18669;53.356;-1.464;2023-03-04T04:01:37;9.98;;;3.45;;
29838;SDS011;18669;53.356;-1.464;2023-03-04T04:04:03;8.10;;;2.72;;
29838;SDS011;18669;53.356;-1.464;2023-03-04T04:08:55;10.95;;;2.50;;
29838;SDS011;18669;53.356;-1.464;2023-03-04T04:11:21;11.23;;;3.17;;
29838;SDS011;18669;53.356;-1.464;2023-03-04T04:13:47;6.15;;;2.50;;
29838;SDS011;18669;53.356;-1.464;2023-03-04T04:16:13;10.25;;;2.78;;
29838;SDS011;18669;53.356;-1.464;2023-03-04T04:18:39;8.63;;;2.88;;
29838;SDS011;18669;53.356;-1.464;2023-03-04T04:21:05;11.30;;;3.03;;
29838;SDS011;18669;53.356;-1.464;2023-03-04T04:23:31;4.75;;;2.30;;
29838;SDS011;18669;53.356;-1.464;2023-03-04T04:25:58;5.95;;;3.08;;
29838;SDS011;18669;53.356;-1.464;2023-03-04T04:28:24;9.00;;;2.85;;
29838;SDS011;18669;53.356;-1.464;2023-03-04T04:30:50;5.20;;;2.17;;
29838;SDS011;18669;53.356;-1.464;2023-03-04T04:33:16;5.63;;;2.70;;
29838;SDS011;18669;53.356;-1.464;2023-03-04T04:35:42;6.32;;;2.47;;
29838;SDS011;18669;53.356;-1.464;2023-03-04T04:38:08;5.68;;;2.25;;
29838;SDS011;18669;53.356;-1.464;2023-03-04T04:40:35;5.68;;;2.30;;
29838;SDS011;18669;53.356;-1.464;2023-03-04T04:43:01;7.25;;;2.50;;
29838;SDS011;18669;53.356;-1.464;2023-03-04T04:45:28;5.63;;;2.17;;
29838;SDS011;18669;53.356;-1.464;2023-03-04T04:47:54;7.22;;;2.30;;
29838;SDS011;18669;53.356;-1.464;2023-03-04T04:50:22;14.43;;;2.40;;
29838;SDS011;18669;53.356;-1.464;2023-03-04T04:52:49;14.55;;;2.72;;
29838;SDS011;18669;53.356;-1.464;2023-03-04T04:55:15;3.70;;;2.22;;
29838;SDS011;18669;53.356;-1.464;2023-03-04T04:57:41;3.58;;;2.20;;
29838;SDS011;18669;53.356;-1.464;2023-03-04T05:00:07;4.35;;;2.25;;
29838;SDS011;18669;53.356;-1.464;2023-03-04T05:02:34;5.53;;;2.25;;
29838;SDS011;18669;53.356;-1.464;2023-03-04T05:05:02;8.23;;;2.72;;
29838;SDS011;18669;53.356;-1.464;2023-03-04T05:07:29;8.80;;;2.58;;
29838;SDS011;18669;53.356;-1.464;2023-03-04T05:09:55;4.97;;;2.65;;
29838;SDS011;18669;53.356;-1.464;2023-03-04T05:12:21;4.85;;;2.25;;
29838;SDS011;18669;53.356;-1.464;2023-03-04T05:14:47;8.18;;;2.53;;
29838;SDS011;18669;53.356;-1.464;2023-03-04T05:17:13;9.02;;;2.53;;
29838;SDS011;18669;53.356;-1.464;2023-03-04T05:19:39;11.43;;;2.60;;
29838;SDS011;18669;53.356;-1.464;2023-03-04T05:22:05;7.18;;;2.95;;
29838;SDS011;18669;53.356;-1.464;2023-03-04T05:24:31;3.22;;;2.15;;
29838;SDS011;18669;53.356;-1.464;2023-03-04T05:26:59;8.20;;;2.47;;
29838;SDS011;18669;53.356;-1.464;2023-03-04T05:29:26;7.75;;;2.40;;
29838;SDS011;18669;53.356;-1.464;2023-03-04T05:31:52;6.32;;;2.25;;
29838;SDS011;18669;53.356;-1.464;2023-03-04T05:34:18;7.30;;;2.63;;
29838;SDS011;18669;53.356;-1.464;2023-03-04T05:36:44;10.20;;;2.83;;
29838;SDS011;18669;53.356;-1.464;2023-03-04T05:39:10;6.78;;;2.40;;
29838;SDS011;18669;53.356;-1.464;2023-03-04T05:41:36;11.15;;;2.50;;
29838;SDS011;18669;53.356;-1.464;2023-03-04T05:44:02;8.85;;;2.47;;
29838;SDS011;18669;53.356;-1.464;2023-03-04T05:48:54;5.72;;;2.25;;
29838;SDS011;18669;53.356;-1.464;2023-03-04T05:51:20;5.43;;;2.08;;
29838;SDS011;18669;53.356;-1.464;2023-03-04T05:53:47;9.05;;;2.65;;
29838;SDS011;18669;53.356;-1.464;2023-03-04T05:58:41;7.72;;;2.17;;
29838;SDS011;18669;53.356;-1.464;2023-03-04T06:01:08;5.88;;;2.05;;
29838;SDS011;18669;53.356;-1.464;2023-03-04T06:03:35;5.75;;;2.47;;
29838;SDS011;18669;53.356;-1.464;2023-03-04T06:06:01;7.32;;;2.40;;
29838;SDS011;18669;53.356;-1.464;2023-03-04T06:08:28;9.60;;;2.45;;
29838;SDS011;18669;53.356;-1.464;2023-03-04T06:10:55;7.32;;;2.33;;
29838;SDS011;18669;53.356;-1.464;2023-03-04T06:13:22;8.25;;;2.53;;
29838;SDS011;18669;53.356;-1.464;2023-03-04T06:15:52;7.20;;;2.70;;
29838;SDS011;18669;53.356;-1.464;2023-03-04T06:18:23;4.03;;;2.33;;
29838;SDS011;18669;53.356;-1.464;2023-03-04T06:20:50;4.53;;;2.20;;
29838;SDS011;18669;53.356;-1.464;2023-03-04T06:23:21;11.95;;;2.85;;
29838;SDS011;18669;53.356;-1.464;2023-03-04T06:25:50;9.15;;;2.45;;
29838;SDS011;18669;53.356;-1.464;2023-03-04T06:28:17;6.53;;;2.50;;
29838;SDS011;18669;53.356;-1.464;2023-03-04T06:30:43;5.78;;;2.10;;
29838;SDS011;18669;53.356;-1.464;2023-03-04T06:33:09;4.95;;;2.13;;
29838;SDS011;18669;53.356;-1.464;2023-03-04T06:35:35;7.00;;;2.33;;
29838;SDS011;18669;53.356;-1.464;2023-03-04T06:38:01;7.10;;;2.33;;
29838;SDS011;18669;53.356;-1.464;2023-03-04T06:40:27;9.90;;;2.28;;
29838;SDS011;18669;53.356;-1.464;2023-03-04T06:42:53;3.65;;;1.85;;
29838;SDS011;18669;53.356;-1.464;2023-03-04T06:45:19;8.10;;;2.30;;
29838;SDS011;18669;53.356;-1.464;2023-03-04T06:47:45;7.28;;;2.22;;
29838;SDS011;18669;53.356;-1.464;2023-03-04T06:50:11;5.82;;;1.95;;
29838;SDS011;18669;53.356;-1.464;2023-03-04T06:52:38;3.42;;;1.75;;
29838;SDS011;18669;53.356;-1.464;2023-03-04T06:55:05;7.47;;;1.92;;
29838;SDS011;18669;53.356;-1.464;2023-03-04T06:57:31;6.80;;;2.10;;
29838;SDS011;18669;53.356;-1.464;2023-03-04T06:59:57;5.45;;;2.10;;
29838;SDS011;18669;53.356;-1.464;2023-03-04T07:02:23;8.25;;;2.00;;
29838;SDS011;18669;53.356;-1.464;2023-03-04T07:04:49;5.70;;;2.40;;
29838;SDS011;18669;53.356;-1.464;2023-03-04T07:07:15;11.25;;;2.45;;
29838;SDS011;18669;53.356;-1.464;2023-03-04T07:09:42;7.65;;;2.05;;
29838;SDS011;18669;53.356;-1.464;2023-03-04T07:12:08;7.82;;;2.03;;
29838;SDS011;18669;53.356;-1.464;2023-03-04T07:14:34;11.32;;;2.60;;
29838;SDS011;18669;53.356;-1.464;2023-03-04T07:17:00;8.45;;;2.10;;
29838;SDS011;18669;53.356;-1.464;2023-03-04T07:19:25;5.45;;;1.80;;
29838;SDS011;18669;53.356;-1.464;2023-03-04T07:21:51;7.43;;;1.95;;
29838;SDS011;18669;53.356;-1.464;2023-03-04T07:24:18;6.38;;;2.00;;
29838;SDS011;18669;53.356;-1.464;2023-03-04T07:29:10;7.93;;;1.70;;
29838;SDS011;18669;53.356;-1.464;2023-03-04T07:31:37;9.25;;;1.98;;
29838;SDS011;18669;53.356;-1.464;2023-03-04T07:34:04;5.45;;;1.50;;
29838;SDS011;18669;53.356;-1.464;2023-03-04T07:36:34;4.53;;;1.67;;
29838;SDS011;18669;53.356;-1.464;2023-03-04T07:39:01;4.53;;;2.03;;
29838;SDS011;18669;53.356;-1.464;2023-03-04T07:41:28;5.13;;;1.90;;
29838;SDS011;18669;53.356;-1.464;2023-03-04T07:43:56;10.65;;;2.08;;
29838;SDS011;18669;53.356;-1.464;2023-03-04T07:46:23;6.68;;;2.10;;
29838;SDS011;18669;53.356;-1.464;2023-03-04T07:48:50;4.72;;;2.08;;
29838;SDS011;18669;53.356;-1.464;2023-03-04T07:51:17;5.38;;;1.42;;
29838;SDS011;18669;53.356;-1.464;2023-03-04T07:53:46;4.85;;;2.08;;
29838;SDS011;18669;53.356;-1.464;2023-03-04T07:56:15;5.55;;;1.85;;
29838;SDS011;18669;53.356;-1.464;2023-03-04T07:58:43;9.13;;;2.70;;
29838;SDS011;18669;53.356;-1.464;2023-03-04T08:01:14;6.78;;;1.92;;
29838;SDS011;18669;53.356;-1.464;2023-03-04T08:03:42;8.13;;;2.78;;
29838;SDS011;18669;53.356;-1.464;2023-03-04T08:06:10;14.00;;;2.00;;
29838;SDS011;18669;53.356;-1.464;2023-03-04T08:08:38;6.53;;;2.20;;
29838;SDS011;18669;53.356;-1.464;2023-03-04T08:11:05;6.75;;;1.95;;
29838;SDS011;18669;53.356;-1.464;2023-03-04T08:13:34;5.43;;;1.80;;
29838;SDS011;18669;53.356;-1.464;2023-03-04T08:16:00;3.85;;;1.95;;
29838;SDS011;18669;53.356;-1.464;2023-03-04T08:18:27;5.45;;;2.05;;
29838;SDS011;18669;53.356;-1.464;2023-03-04T08:20:53;4.18;;;1.73;;
29838;SDS011;18669;53.356;-1.464;2023-03-04T08:25:46;4.47;;;1.88;;
29838;SDS011;18669;53.356;-1.464;2023-03-04T08:28:13;6.88;;;2.33;;
29838;SDS011;18669;53.356;-1.464;2023-03-04T08:30:40;4.53;;;1.65;;
29838;SDS011;18669;53.356;-1.464;2023-03-04T08:33:07;5.55;;;1.90;;
29838;SDS011;18669;53.356;-1.464;2023-03-04T08:35:35;11.90;;;1.95;;
29838;SDS011;18669;53.356;-1.464;2023-03-04T08:38:04;5.18;;;1.80;;
29838;SDS011;18669;53.356;-1.464;2023-03-04T08:40:31;7.03;;;2.40;;
29838;SDS011;18669;53.356;-1.464;2023-03-04T08:42:58;6.30;;;1.70;;
29838;SDS011;18669;53.356;-1.464;2023-03-04T08:45:25;8.38;;;2.38;;
29838;SDS011;18669;53.356;-1.464;2023-03-04T08:47:51;5.85;;;2.40;;
29838;SDS011;18669;53.356;-1.464;2023-03-04T08:52:43;6.97;;;2.10;;
29838;SDS011;18669;53.356;-1.464;2023-03-04T08:55:09;4.28;;;2.13;;
29838;SDS011;18669;53.356;-1.464;2023-03-04T08:57:35;4.75;;;2.20;;
29838;SDS011;18669;53.356;-1.464;2023-03-04T09:00:02;10.68;;;2.22;;
29838;SDS011;18669;53.356;-1.464;2023-03-04T09:02:28;8.00;;;2.30;;
29838;SDS011;18669;53.356;-1.464;2023-03-04T09:04:55;95.57;;;7.53;;
29838;SDS011;18669;53.356;-1.464;2023-03-04T09:07:21;42.33;;;3.90;;
29838;SDS011;18669;53.356;-1.464;2023-03-04T09:09:47;4.32;;;2.33;;
29838;SDS011;18669;53.356;-1.464;2023-03-04T09:12:13;8.18;;;2.08;;
29838;SDS011;18669;53.356;-1.464;2023-03-04T09:14:39;5.38;;;2.15;;
29838;SDS011;18669;53.356;-1.464;2023-03-04T09:17:05;4.13;;;2.30;;
29838;SDS011;18669;53.356;-1.464;2023-03-04T09:19:31;4.88;;;2.05;;
29838;SDS011;18669;53.356;-1.464;2023-03-04T09:21:57;7.00;;;2.08;;
29838;SDS011;18669;53.356;-1.464;2023-03-04T09:26:51;9.32;;;2.42;;
29838;SDS011;18669;53.356;-1.464;2023-03-04T09:29:18;7.68;;;2.00;;
29838;SDS011;18669;53.356;-1.464;2023-03-04T09:34:10;6.13;;;2.05;;
29838;SDS011;18669;53.356;-1.464;2023-03-04T09:36:36;11.07;;;2.53;;
29838;SDS011;18669;53.356;-1.464;2023-03-04T09:39:03;14.10;;;3.22;;
29838;SDS011;18669;53.356;-1.464;2023-03-04T09:44:06;13.65;;;2.30;;
29838;SDS011;18669;53.356;-1.464;2023-03-04T09:46:40;13.95;;;2.92;;
29838;SDS011;18669;53.356;-1.464;2023-03-04T09:49:09;5.75;;;2.17;;
29838;SDS011;18669;53.356;-1.464;2023-03-04T09:51:46;8.80;;;2.20;;
29838;SDS011;18669;53.356;-1.464;2023-03-04T09:56:49;9.27;;;2.20;;
29838;SDS011;18669;53.356;-1.464;2023-03-04T10:04:39;10.80;;;2.28;;
29838;SDS011;18669;53.356;-1.464;2023-03-04T10:07:20;7.70;;;2.10;;
29838;SDS011;18669;53.356;-1.464;2023-03-04T10:09:59;7.28;;;2.10;;
29838;SDS011;18669;53.356;-1.464;2023-03-04T10:12:29;8.43;;;2.08;;
29838;SDS011;18669;53.356;-1.464;2023-03-04T10:14:58;4.15;;;2.00;;
29838;SDS011;18669;53.356;-1.464;2023-03-04T10:17:40;7.25;;;2.13;;
29838;SDS011;18669;53.356;-1.464;2023-03-04T10:20:20;8.93;;;2.28;;
29838;SDS011;18669;53.356;-1.464;2023-03-04T10:22:52;9.77;;;2.92;;
29838;SDS011;18669;53.356;-1.464;2023-03-04T10:25:26;10.65;;;2.63;;
29838;SDS011;18669;53.356;-1.464;2023-03-04T10:27:58;7.72;;;2.80;;
29838;SDS011;18669;53.356;-1.464;2023-03-04T10:30:37;9.52;;;2.80;;
29838;SDS011;18669;53.356;-1.464;2023-03-04T10:33:10;6.68;;;2.60;;
29838;SDS011;18669;53.356;-1.464;2023-03-04T10:35:38;6.90;;;2.47;;
29838;SDS011;18669;53.356;-1.464;2023-03-04T10:38:06;6.70;;;2.38;;
29838;SDS011;18669;53.356;-1.464;2023-03-04T10:40:38;13.57;;;2.80;;
29838;SDS011;18669;53.356;-1.464;2023-03-04T10:43:28;8.05;;;2.20;;
29838;SDS011;18669;53.356;-1.464;2023-03-04T10:45:56;11.23;;;2.85;;
29838;SDS011;18669;53.356;-1.464;2023-03-04T10:48:27;7.43;;;2.80;;
29838;SDS011;18669;53.356;-1.464;2023-03-04T10:51:09;12.32;;;3.30;;
29838;SDS011;18669;53.356;-1.464;2023-03-04T10:53:48;8.32;;;2.60;;
29838;SDS011;18669;53.356;-1.464;2023-03-04T11:07:55;8.48;;;2.97;;
29838;SDS011;18669;53.356;-1.464;2023-03-04T11:19:03;8.40;;;2.85;;
29838;SDS011;18669;53.356;-1.464;2023-03-04T11:21:24;6.28;;;2.80;;
29838;SDS011;18669;53.356;-1.464;2023-03-04T11:23:55;8.85;;;2.70;;
29838;SDS011;18669;53.356;-1.464;2023-03-04T11:26:29;12.25;;;2.80;;
29838;SDS011;18669;53.356;-1.464;2023-03-04T11:31:27;5.75;;;2.47;;
29838;SDS011;18669;53.356;-1.464;2023-03-04T11:34:15;6.60;;;2.08;;
29838;SDS011;18669;53.356;-1.464;2023-03-04T11:39:40;9.15;;;2.78;;
29838;SDS011;18669;53.356;-1.464;2023-03-04T11:42:16;9.55;;;2.42;;
29838;SDS011;18669;53.356;-1.464;2023-03-04T11:44:51;5.85;;;2.50;;
29838;SDS011;18669;53.356;-1.464;2023-03-04T11:52:49;5.65;;;2.17;;
29838;SDS011;18669;53.356;-1.464;2023-03-04T11:55:42;5.68;;;2.00;;
29838;SDS011;18669;53.356;-1.464;2023-03-04T11:58:37;8.63;;;2.47;;
29838;SDS011;18669;53.356;-1.464;2023-03-04T12:01:14;4.43;;;2.10;;
29838;SDS011;18669;53.356;-1.464;2023-03-04T12:04:04;6.78;;;2.30;;
29838;SDS011;18669;53.356;-1.464;2023-03-04T12:11:59;8.23;;;1.75;;
29838;SDS011;18669;53.356;-1.464;2023-03-04T12:14:33;7.78;;;2.47;;
29838;SDS011;18669;53.356;-1.464;2023-03-04T12:20:39;3.83;;;2.22;;
29838;SDS011;18669;53.356;-1.464;2023-03-04T12:34:25;9.45;;;2.20;;
29838;SDS011;18669;53.356;-1.464;2023-03-04T12:43:10;9.13;;;1.92;;
29838;SDS011;18669;53.356;-1.464;2023-03-04T12:45:25;5.22;;;2.17;;
29838;SDS011;18669;53.356;-1.464;2023-03-04T12:50:55;6.63;;;3.70;;
29838;SDS011;18669;53.356;-1.464;2023-03-04T12:53:38;22.38;;;9.48;;
29838;SDS011;18669;53.356;-1.464;2023-03-04T12:56:25;8.80;;;3.75;;
29838;SDS011;18669;53.356;-1.464;2023-03-04T12:58:54;9.73;;;2.50;;
29838;SDS011;18669;53.356;-1.464;2023-03-04T13:12:46;6.43;;;1.77;;
29838;SDS011;18669;53.356;-1.464;2023-03-04T13:15:27;5.22;;;2.28;;
29838;SDS011;18669;53.356;-1.464;2023-03-04T13:17:57;3.63;;;1.83;;
29838;SDS011;18669;53.356;-1.464;2023-03-04T13:25:45;5.15;;;2.13;;
29838;SDS011;18669;53.356;-1.464;2023-03-04T13:28:14;5.78;;;2.20;;
29838;SDS011;18669;53.356;-1.464;2023-03-04T13:48:46;2.95;;;1.90;;
29838;SDS011;18669;53.356;-1.464;2023-03-04T13:51:28;6.40;;;2.67;;
29838;SDS011;18669;53.356;-1.464;2023-03-04T14:04:25;5.95;;;1.83;;
29838;SDS011;18669;53.356;-1.464;2023-03-04T14:06:52;6.28;;;1.60;;
29838;SDS011;18669;53.356;-1.464;2023-03-04T14:09:21;8.27;;;1.60;;
29838;SDS011;18669;53.356;-1.464;2023-03-04T14:11:50;5.57;;;1.67;;
29838;SDS011;18669;53.356;-1.464;2023-03-04T14:14:19;2.95;;;1.65;;
29838;SDS011;18669;53.356;-1.464;2023-03-04T14:16:49;4.55;;;2.30;;
29838;SDS011;18669;53.356;-1.464;2023-03-04T14:21:54;3.60;;;1.90;;
29838;SDS011;18669;53.356;-1.464;2023-03-04T14:24:22;5.10;;;2.15;;
29838;SDS011;18669;53.356;-1.464;2023-03-04T14:26:49;6.65;;;2.08;;
29838;SDS011;18669;53.356;-1.464;2023-03-04T14:29:31;4.55;;;1.83;;
29838;SDS011;18669;53.356;-1.464;2023-03-04T14:31:57;5.40;;;2.22;;
29838;SDS011;18669;53.356;-1.464;2023-03-04T14:34:29;3.65;;;2.03;;
29838;SDS011;18669;53.356;-1.464;2023-03-04T14:36:58;4.80;;;2.38;;
29838;SDS011;18669;53.356;-1.464;2023-03-04T14:39:25;4.10;;;1.85;;
29838;SDS011;18669;53.356;-1.464;2023-03-04T14:41:54;5.50;;;2.22;;
29838;SDS011;18669;53.356;-1.464;2023-03-04T14:47:13;3.90;;;2.30;;
29838;SDS011;18669;53.356;-1.464;2023-03-04T14:49:45;5.22;;;1.90;;
29838;SDS011;18669;53.356;-1.464;2023-03-04T14:55:07;3.67;;;1.92;;
29838;SDS011;18669;53.356;-1.464;2023-03-04T14:57:43;3.28;;;2.05;;
29838;SDS011;18669;53.356;-1.464;2023-03-04T15:02:50;6.40;;;2.80;;
29838;SDS011;18669;53.356;-1.464;2023-03-04T15:05:25;4.20;;;2.08;;
29838;SDS011;18669;53.356;-1.464;2023-03-04T15:08:03;4.53;;;2.50;;
29838;SDS011;18669;53.356;-1.464;2023-03-04T15:10:41;10.02;;;2.45;;
29838;SDS011;18669;53.356;-1.464;2023-03-04T15:18:14;8.80;;;3.03;;
29838;SDS011;18669;53.356;-1.464;2023-03-04T15:21:00;5.90;;;2.95;;
29838;SDS011;18669;53.356;-1.464;2023-03-04T15:23:27;7.70;;;3.30;;
29838;SDS011;18669;53.356;-1.464;2023-03-04T15:25:56;6.38;;;2.70;;
29838;SDS011;18669;53.356;-1.464;2023-03-04T15:28:24;7.13;;;2.47;;
29838;SDS011;18669;53.356;-1.464;2023-03-04T15:30:54;8.32;;;3.20;;
29838;SDS011;18669;53.356;-1.464;2023-03-04T15:33:20;6.63;;;2.65;;
29838;SDS011;18669;53.356;-1.464;2023-03-04T15:35:57;5.10;;;2.72;;
29838;SDS011;18669;53.356;-1.464;2023-03-04T15:38:25;5.65;;;2.17;;
29838;SDS011;18669;53.356;-1.464;2023-03-04T15:40:53;5.63;;;2.83;;
29838;SDS011;18669;53.356;-1.464;2023-03-04T15:43:20;6.63;;;2.72;;
29838;SDS011;18669;53.356;-1.464;2023-03-04T15:45:48;6.55;;;3.42;;
29838;SDS011;18669;53.356;-1.464;2023-03-04T15:48:15;5.15;;;2.30;;
29838;SDS011;18669;53.356;-1.464;2023-03-04T15:50:50;5.57;;;2.30;;
29838;SDS011;18669;53.356;-1.464;2023-03-04T15:53:24;6.18;;;2.50;;
29838;SDS011;18669;53.356;-1.464;2023-03-04T15:55:53;4.43;;;2.47;;
29838;SDS011;18669;53.356;-1.464;2023-03-04T16:00:45;16.15;;;2.25;;
29838;SDS011;18669;53.356;-1.464;2023-03-04T16:03:14;4.30;;;2.25;;
29838;SDS011;18669;53.356;-1.464;2023-03-04T16:05:42;4.63;;;2.67;;
29838;SDS011;18669;53.356;-1.464;2023-03-04T16:08:12;9.43;;;3.72;;
29838;SDS011;18669;53.356;-1.464;2023-03-04T16:10:40;4.35;;;2.88;;
29838;SDS011;18669;53.356;-1.464;2023-03-04T16:13:18;6.65;;;3.20;;
29838;SDS011;18669;53.356;-1.464;2023-03-04T16:15:47;6.00;;;2.55;;
29838;SDS011;18669;53.356;-1.464;2023-03-04T16:18:14;9.95;;;3.22;;
29838;SDS011;18669;53.356;-1.464;2023-03-04T16:20:42;6.78;;;2.50;;
29838;SDS011;18669;53.356;-1.464;2023-03-04T16:23:14;5.60;;;2.67;;
29838;SDS011;18669;53.356;-1.464;2023-03-04T16:25:44;5.40;;;3.00;;
29838;SDS011;18669;53.356;-1.464;2023-03-04T16:28:11;7.90;;;2.90;;
29838;SDS011;18669;53.356;-1.464;2023-03-04T16:30:38;6.35;;;3.05;;
29838;SDS011;18669;53.356;-1.464;2023-03-04T16:33:04;6.82;;;3.10;;
29838;SDS011;18669;53.356;-1.464;2023-03-04T16:35:31;9.65;;;3.53;;
29838;SDS011;18669;53.356;-1.464;2023-03-04T16:37:58;7.25;;;4.15;;
29838;SDS011;18669;53.356;-1.464;2023-03-04T16:40:26;5.78;;;2.67;;
29838;SDS011;18669;53.356;-1.464;2023-03-04T16:42:54;5.80;;;3.08;;
29838;SDS011;18669;53.356;-1.464;2023-03-04T16:47:51;7.78;;;2.80;;
29838;SDS011;18669;53.356;-1.464;2023-03-04T16:50:18;6.35;;;3.13;;
29838;SDS011;18669;53.356;-1.464;2023-03-04T16:52:46;10.35;;;3.35;;
29838;SDS011;18669;53.356;-1.464;2023-03-04T16:55:15;5.32;;;2.55;;
29838;SDS011;18669;53.356;-1.464;2023-03-04T16:57:43;3.58;;;2.10;;
29838;SDS011;18669;53.356;-1.464;2023-03-04T17:00:09;4.22;;;2.53;;
29838;SDS011;18669;53.356;-1.464;2023-03-04T17:02:37;6.35;;;2.38;;
29838;SDS011;18669;53.356;-1.464;2023-03-04T17:05:03;7.40;;;2.95;;
29838;SDS011;18669;53.356;-1.464;2023-03-04T17:10:09;12.00;;;4.32;;
29838;SDS011;18669;53.356;-1.464;2023-03-04T17:12:35;14.57;;;4.95;;
29838;SDS011;18669;53.356;-1.464;2023-03-04T17:15:02;10.90;;;5.10;;
29838;SDS011;18669;53.356;-1.464;2023-03-04T17:17:31;12.90;;;5.93;;
29838;SDS011;18669;53.356;-1.464;2023-03-04T17:19:58;11.98;;;4.28;;
29838;SDS011;18669;53.356;-1.464;2023-03-04T17:22:24;7.57;;;3.45;;
29838;SDS011;18669;53.356;-1.464;2023-03-04T17:24:50;7.57;;;3.47;;
29838;SDS011;18669;53.356;-1.464;2023-03-04T17:27:16;9.30;;;3.25;;
29838;SDS011;18669;53.356;-1.464;2023-03-04T17:29:42;11.15;;;5.20;;
29838;SDS011;18669;53.356;-1.464;2023-03-04T17:32:08;11.07;;;4.82;;
29838;SDS011;18669;53.356;-1.464;2023-03-04T17:34:34;9.20;;;4.30;;
29838;SDS011;18669;53.356;-1.464;2023-03-04T17:37:00;10.60;;;5.85;;
29838;SDS011;18669;53.356;-1.464;2023-03-04T17:39:26;21.00;;;9.20;;
29838;SDS011;18669;53.356;-1.464;2023-03-04T17:41:52;20.25;;;8.80;;
29838;SDS011;18669;53.356;-1.464;2023-03-04T17:44:18;14.73;;;8.45;;